sensor_id;sensor_type;location;lat;lon;timestamp;P1;durP1;ratioP1;P2;durP2;ratioP2
20124;SDS011;10223;50.862;4.360;2022-09-09T00:02:18;5.40;;;0.87;;
20124;SDS011;10223;50.862;4.360;2022-09-09T00:04:48;4.93;;;1.10;;
20124;SDS011;10223;50.862;4.360;2022-09-09T00:07:30;5.43;;;1.30;;
20124;SDS011;10223;50.862;4.360;2022-09-09T00:10:05;3.60;;;1.00;;
20124;SDS011;10223;50.862;4.360;2022-09-09T00:12:46;4.93;;;1.37;;
20124;SDS011;10223;50.862;4.360;2022-09-09T00:15:22;3.97;;;0.90;;
20124;SDS011;10223;50.862;4.360;2022-09-09T00:17:53;3.10;;;0.80;;
20124;SDS011;10223;50.862;4.360;2022-09-09T00:20:28;5.73;;;1.30;;
20124;SDS011;10223;50.862;4.360;2022-09-09T00:23:02;3.27;;;1.20;;
20124;SDS011;10223;50.862;4.360;2022-09-09T00:25:37;5.97;;;0.90;;
20124;SDS011;10223;50.862;4.360;2022-09-09T00:28:13;4.93;;;1.10;;
20124;SDS011;10223;50.862;4.360;2022-09-09T00:30:45;5.07;;;1.70;;
20124;SDS011;10223;50.862;4.360;2022-09-09T00:33:15;4.60;;;1.10;;
20124;SDS011;10223;50.862;4.360;2022-09-09T00:35:48;3.43;;;1.43;;
20124;SDS011;10223;50.862;4.360;2022-09-09T00:38:18;6.93;;;1.30;;
20124;SDS011;10223;50.862;4.360;2022-09-09T00:40:50;4.67;;;0.90;;
20124;SDS011;10223;50.862;4.360;2022-09-09T00:43:25;5.70;;;1.03;;
20124;SDS011;10223;50.862;4.360;2022-09-09T00:49:04;5.50;;;1.40;;
20124;SDS011;10223;50.862;4.360;2022-09-09T00:51:41;4.33;;;0.70;;
20124;SDS011;10223;50.862;4.360;2022-09-09T00:54:19;2.83;;;1.10;;
20124;SDS011;10223;50.862;4.360;2022-09-09T00:56:56;7.33;;;1.33;;
20124;SDS011;10223;50.862;4.360;2022-09-09T00:59:35;5.40;;;0.93;;
20124;SDS011;10223;50.862;4.360;2022-09-09T01:02:13;4.17;;;1.30;;
20124;SDS011;10223;50.862;4.360;2022-09-09T01:04:47;3.13;;;1.13;;
20124;SDS011;10223;50.862;4.360;2022-09-09T01:07:15;4.27;;;1.23;;
20124;SDS011;10223;50.862;4.360;2022-09-09T01:09:51;2.23;;;0.90;;
20124;SDS011;10223;50.862;4.360;2022-09-09T01:12:26;4.03;;;1.17;;
20124;SDS011;10223;50.862;4.360;2022-09-09T01:15:07;3.70;;;0.97;;
20124;SDS011;10223;50.862;4.360;2022-09-09T01:17:44;4.73;;;1.17;;
20124;SDS011;10223;50.862;4.360;2022-09-09T01:20:17;6.20;;;1.33;;
20124;SDS011;10223;50.862;4.360;2022-09-09T01:22:50;2.07;;;1.00;;
20124;SDS011;10223;50.862;4.360;2022-09-09T01:25:30;4.23;;;0.97;;
20124;SDS011;10223;50.862;4.360;2022-09-09T01:28:19;5.03;;;1.10;;
20124;SDS011;10223;50.862;4.360;2022-09-09T01:30:51;6.07;;;1.10;;
20124;SDS011;10223;50.862;4.360;2022-09-09T01:33:19;6.43;;;1.40;;
20124;SDS011;10223;50.862;4.360;2022-09-09T01:35:47;3.97;;;0.90;;
20124;SDS011;10223;50.862;4.360;2022-09-09T01:38:17;7.77;;;1.30;;
20124;SDS011;10223;50.862;4.360;2022-09-09T01:40:44;7.93;;;1.30;;
20124;SDS011;10223;50.862;4.360;2022-09-09T01:43:11;5.73;;;1.47;;
20124;SDS011;10223;50.862;4.360;2022-09-09T01:45:40;7.97;;;1.50;;
20124;SDS011;10223;50.862;4.360;2022-09-09T01:48:09;5.23;;;1.20;;
20124;SDS011;10223;50.862;4.360;2022-09-09T01:50:36;6.73;;;1.37;;
20124;SDS011;10223;50.862;4.360;2022-09-09T01:53:03;7.37;;;1.47;;
20124;SDS011;10223;50.862;4.360;2022-09-09T01:55:30;4.50;;;1.37;;
20124;SDS011;10223;50.862;4.360;2022-09-09T01:58:07;7.23;;;1.60;;
20124;SDS011;10223;50.862;4.360;2022-09-09T02:00:47;7.73;;;1.33;;
20124;SDS011;10223;50.862;4.360;2022-09-09T02:03:23;3.90;;;1.43;;
20124;SDS011;10223;50.862;4.360;2022-09-09T02:05:55;5.80;;;1.70;;
20124;SDS011;10223;50.862;4.360;2022-09-09T02:08:33;5.17;;;1.20;;
20124;SDS011;10223;50.862;4.360;2022-09-09T02:11:06;4.43;;;1.57;;
20124;SDS011;10223;50.862;4.360;2022-09-09T02:13:37;7.73;;;1.90;;
20124;SDS011;10223;50.862;4.360;2022-09-09T02:16:08;8.20;;;1.90;;
20124;SDS011;10223;50.862;4.360;2022-09-09T02:18:40;5.73;;;1.40;;
20124;SDS011;10223;50.862;4.360;2022-09-09T02:21:11;7.60;;;1.70;;
20124;SDS011;10223;50.862;4.360;2022-09-09T02:23:39;7.60;;;1.30;;
20124;SDS011;10223;50.862;4.360;2022-09-09T02:26:09;7.60;;;1.73;;
20124;SDS011;10223;50.862;4.360;2022-09-09T02:28:38;6.00;;;1.60;;
20124;SDS011;10223;50.862;4.360;2022-09-09T02:31:10;4.70;;;1.43;;
20124;SDS011;10223;50.862;4.360;2022-09-09T02:33:38;10.67;;;1.80;;
20124;SDS011;10223;50.862;4.360;2022-09-09T02:36:09;8.10;;;1.57;;
20124;SDS011;10223;50.862;4.360;2022-09-09T02:38:39;10.40;;;1.67;;
20124;SDS011;10223;50.862;4.360;2022-09-09T02:41:08;10.33;;;2.03;;
20124;SDS011;10223;50.862;4.360;2022-09-09T02:43:35;7.63;;;1.60;;
20124;SDS011;10223;50.862;4.360;2022-09-09T02:46:03;6.93;;;1.80;;
20124;SDS011;10223;50.862;4.360;2022-09-09T02:48:46;10.20;;;2.00;;
20124;SDS011;10223;50.862;4.360;2022-09-09T02:51:21;10.10;;;2.17;;
20124;SDS011;10223;50.862;4.360;2022-09-09T02:53:54;7.37;;;1.83;;
20124;SDS011;10223;50.862;4.360;2022-09-09T02:56:27;6.63;;;1.70;;
20124;SDS011;10223;50.862;4.360;2022-09-09T02:58:58;11.83;;;2.07;;
20124;SDS011;10223;50.862;4.360;2022-09-09T03:01:27;6.97;;;1.53;;
20124;SDS011;10223;50.862;4.360;2022-09-09T03:03:54;8.50;;;1.97;;
20124;SDS011;10223;50.862;4.360;2022-09-09T03:06:21;11.63;;;1.77;;
20124;SDS011;10223;50.862;4.360;2022-09-09T03:08:48;5.87;;;1.80;;
20124;SDS011;10223;50.862;4.360;2022-09-09T03:11:15;8.40;;;1.80;;
20124;SDS011;10223;50.862;4.360;2022-09-09T03:13:41;5.37;;;1.60;;
20124;SDS011;10223;50.862;4.360;2022-09-09T03:16:08;8.90;;;1.40;;
20124;SDS011;10223;50.862;4.360;2022-09-09T03:18:37;7.23;;;2.00;;
20124;SDS011;10223;50.862;4.360;2022-09-09T03:21:04;8.13;;;1.40;;
20124;SDS011;10223;50.862;4.360;2022-09-09T03:23:32;3.07;;;1.27;;
20124;SDS011;10223;50.862;4.360;2022-09-09T03:25:58;8.57;;;1.53;;
20124;SDS011;10223;50.862;4.360;2022-09-09T03:28:25;13.83;;;3.80;;
20124;SDS011;10223;50.862;4.360;2022-09-09T03:30:58;7.90;;;1.70;;
20124;SDS011;10223;50.862;4.360;2022-09-09T03:33:25;8.13;;;1.63;;
20124;SDS011;10223;50.862;4.360;2022-09-09T03:35:54;6.43;;;1.60;;
20124;SDS011;10223;50.862;4.360;2022-09-09T03:38:22;7.03;;;1.60;;
20124;SDS011;10223;50.862;4.360;2022-09-09T03:40:49;14.20;;;1.93;;
20124;SDS011;10223;50.862;4.360;2022-09-09T03:43:18;12.90;;;1.73;;
20124;SDS011;10223;50.862;4.360;2022-09-09T03:45:46;7.40;;;1.57;;
20124;SDS011;10223;50.862;4.360;2022-09-09T03:48:13;12.57;;;1.77;;
20124;SDS011;10223;50.862;4.360;2022-09-09T03:50:43;6.50;;;1.73;;
20124;SDS011;10223;50.862;4.360;2022-09-09T03:53:13;14.37;;;2.07;;
20124;SDS011;10223;50.862;4.360;2022-09-09T03:55:43;6.80;;;2.00;;
20124;SDS011;10223;50.862;4.360;2022-09-09T03:58:11;15.13;;;2.00;;
20124;SDS011;10223;50.862;4.360;2022-09-09T04:00:38;9.73;;;1.57;;
20124;SDS011;10223;50.862;4.360;2022-09-09T04:03:07;12.47;;;2.20;;
20124;SDS011;10223;50.862;4.360;2022-09-09T04:05:34;6.73;;;1.77;;
20124;SDS011;10223;50.862;4.360;2022-09-09T04:08:04;11.33;;;2.90;;
20124;SDS011;10223;50.862;4.360;2022-09-09T04:10:33;8.83;;;1.90;;
20124;SDS011;10223;50.862;4.360;2022-09-09T04:13:02;9.03;;;2.47;;
20124;SDS011;10223;50.862;4.360;2022-09-09T04:15:29;7.97;;;1.83;;
20124;SDS011;10223;50.862;4.360;2022-09-09T04:17:56;10.07;;;1.90;;
20124;SDS011;10223;50.862;4.360;2022-09-09T04:20:23;10.53;;;2.67;;
20124;SDS011;10223;50.862;4.360;2022-09-09T04:22:50;8.40;;;1.97;;
20124;SDS011;10223;50.862;4.360;2022-09-09T04:25:17;11.57;;;2.13;;
20124;SDS011;10223;50.862;4.360;2022-09-09T04:27:45;9.07;;;1.80;;
20124;SDS011;10223;50.862;4.360;2022-09-09T04:30:12;9.20;;;2.10;;
20124;SDS011;10223;50.862;4.360;2022-09-09T04:32:39;8.43;;;2.10;;
20124;SDS011;10223;50.862;4.360;2022-09-09T04:35:07;10.93;;;2.20;;
20124;SDS011;10223;50.862;4.360;2022-09-09T04:37:34;9.77;;;2.30;;
20124;SDS011;10223;50.862;4.360;2022-09-09T04:40:01;15.33;;;2.57;;
20124;SDS011;10223;50.862;4.360;2022-09-09T04:42:28;7.47;;;2.30;;
20124;SDS011;10223;50.862;4.360;2022-09-09T04:44:56;12.20;;;2.50;;
20124;SDS011;10223;50.862;4.360;2022-09-09T04:47:23;15.53;;;2.60;;
20124;SDS011;10223;50.862;4.360;2022-09-09T04:49:51;12.07;;;3.37;;
20124;SDS011;10223;50.862;4.360;2022-09-09T04:52:19;11.90;;;2.33;;
20124;SDS011;10223;50.862;4.360;2022-09-09T04:54:46;11.73;;;2.47;;
20124;SDS011;10223;50.862;4.360;2022-09-09T04:57:13;14.73;;;2.60;;
20124;SDS011;10223;50.862;4.360;2022-09-09T04:59:40;12.67;;;2.40;;
20124;SDS011;10223;50.862;4.360;2022-09-09T05:02:08;8.60;;;2.00;;
20124;SDS011;10223;50.862;4.360;2022-09-09T05:04:35;12.07;;;2.97;;
20124;SDS011;10223;50.862;4.360;2022-09-09T05:07:02;11.57;;;2.77;;
20124;SDS011;10223;50.862;4.360;2022-09-09T05:09:29;10.73;;;2.63;;
20124;SDS011;10223;50.862;4.360;2022-09-09T05:11:56;7.80;;;2.43;;
20124;SDS011;10223;50.862;4.360;2022-09-09T05:14:23;13.33;;;2.80;;
20124;SDS011;10223;50.862;4.360;2022-09-09T05:16:50;10.80;;;2.60;;
20124;SDS011;10223;50.862;4.360;2022-09-09T05:19:18;11.47;;;3.53;;
20124;SDS011;10223;50.862;4.360;2022-09-09T05:21:45;8.27;;;2.63;;
20124;SDS011;10223;50.862;4.360;2022-09-09T05:24:12;10.57;;;2.37;;
20124;SDS011;10223;50.862;4.360;2022-09-09T05:26:39;10.83;;;2.73;;
20124;SDS011;10223;50.862;4.360;2022-09-09T05:29:06;13.80;;;2.60;;
20124;SDS011;10223;50.862;4.360;2022-09-09T05:31:33;9.97;;;2.87;;
20124;SDS011;10223;50.862;4.360;2022-09-09T05:34:00;10.80;;;2.70;;
20124;SDS011;10223;50.862;4.360;2022-09-09T05:36:28;15.67;;;2.77;;
20124;SDS011;10223;50.862;4.360;2022-09-09T05:38:55;5.93;;;2.40;;
20124;SDS011;10223;50.862;4.360;2022-09-09T05:41:22;7.67;;;2.67;;
20124;SDS011;10223;50.862;4.360;2022-09-09T05:43:49;10.73;;;2.63;;
20124;SDS011;10223;50.862;4.360;2022-09-09T05:46:16;13.67;;;2.17;;
20124;SDS011;10223;50.862;4.360;2022-09-09T05:48:45;7.97;;;1.90;;
20124;SDS011;10223;50.862;4.360;2022-09-09T05:51:14;12.17;;;3.07;;
20124;SDS011;10223;50.862;4.360;2022-09-09T05:53:44;12.70;;;2.73;;
20124;SDS011;10223;50.862;4.360;2022-09-09T05:56:12;5.63;;;2.20;;
20124;SDS011;10223;50.862;4.360;2022-09-09T05:58:40;14.50;;;2.83;;
20124;SDS011;10223;50.862;4.360;2022-09-09T06:01:09;15.57;;;2.57;;
20124;SDS011;10223;50.862;4.360;2022-09-09T06:03:39;12.80;;;2.43;;
20124;SDS011;10223;50.862;4.360;2022-09-09T06:06:07;12.57;;;2.23;;
20124;SDS011;10223;50.862;4.360;2022-09-09T06:08:36;14.43;;;2.40;;
20124;SDS011;10223;50.862;4.360;2022-09-09T06:11:07;12.37;;;2.80;;
20124;SDS011;10223;50.862;4.360;2022-09-09T06:13:35;14.60;;;2.23;;
20124;SDS011;10223;50.862;4.360;2022-09-09T06:16:04;8.90;;;2.30;;
20124;SDS011;10223;50.862;4.360;2022-09-09T06:18:32;10.60;;;2.07;;
20124;SDS011;10223;50.862;4.360;2022-09-09T06:21:00;11.33;;;2.63;;
20124;SDS011;10223;50.862;4.360;2022-09-09T06:23:29;10.03;;;2.13;;
20124;SDS011;10223;50.862;4.360;2022-09-09T06:26:03;9.83;;;2.63;;
20124;SDS011;10223;50.862;4.360;2022-09-09T06:28:33;12.00;;;2.37;;
20124;SDS011;10223;50.862;4.360;2022-09-09T06:31:02;8.00;;;1.90;;
20124;SDS011;10223;50.862;4.360;2022-09-09T06:33:30;7.43;;;2.33;;
20124;SDS011;10223;50.862;4.360;2022-09-09T06:36:01;10.47;;;2.20;;
20124;SDS011;10223;50.862;4.360;2022-09-09T06:38:30;10.23;;;2.67;;
20124;SDS011;10223;50.862;4.360;2022-09-09T06:40:57;10.83;;;2.03;;
20124;SDS011;10223;50.862;4.360;2022-09-09T06:43:25;15.20;;;2.40;;
20124;SDS011;10223;50.862;4.360;2022-09-09T06:45:54;9.23;;;2.37;;
20124;SDS011;10223;50.862;4.360;2022-09-09T06:48:22;11.23;;;2.60;;
20124;SDS011;10223;50.862;4.360;2022-09-09T06:50:51;10.93;;;2.30;;
20124;SDS011;10223;50.862;4.360;2022-09-09T06:53:19;8.83;;;2.37;;
20124;SDS011;10223;50.862;4.360;2022-09-09T06:55:46;11.17;;;2.40;;
20124;SDS011;10223;50.862;4.360;2022-09-09T06:58:13;14.73;;;2.33;;
20124;SDS011;10223;50.862;4.360;2022-09-09T07:00:39;18.70;;;4.77;;
20124;SDS011;10223;50.862;4.360;2022-09-09T07:03:08;13.93;;;2.50;;
20124;SDS011;10223;50.862;4.360;2022-09-09T07:05:36;8.57;;;1.90;;
20124;SDS011;10223;50.862;4.360;2022-09-09T07:08:03;6.10;;;1.87;;
20124;SDS011;10223;50.862;4.360;2022-09-09T07:10:30;13.33;;;2.50;;
20124;SDS011;10223;50.862;4.360;2022-09-09T07:12:59;11.47;;;2.07;;
20124;SDS011;10223;50.862;4.360;2022-09-09T07:15:26;16.57;;;2.50;;
20124;SDS011;10223;50.862;4.360;2022-09-09T07:17:53;10.03;;;1.90;;
20124;SDS011;10223;50.862;4.360;2022-09-09T07:20:21;11.00;;;2.30;;
20124;SDS011;10223;50.862;4.360;2022-09-09T07:22:48;6.87;;;1.57;;
20124;SDS011;10223;50.862;4.360;2022-09-09T07:25:15;12.63;;;1.93;;
20124;SDS011;10223;50.862;4.360;2022-09-09T07:27:43;8.60;;;2.00;;
20124;SDS011;10223;50.862;4.360;2022-09-09T07:30:10;14.87;;;2.60;;
20124;SDS011;10223;50.862;4.360;2022-09-09T07:32:37;8.23;;;2.10;;
20124;SDS011;10223;50.862;4.360;2022-09-09T07:35:05;10.13;;;2.20;;
20124;SDS011;10223;50.862;4.360;2022-09-09T07:37:35;8.87;;;1.87;;
20124;SDS011;10223;50.862;4.360;2022-09-09T07:40:02;9.53;;;2.23;;
20124;SDS011;10223;50.862;4.360;2022-09-09T07:42:30;12.83;;;1.90;;
20124;SDS011;10223;50.862;4.360;2022-09-09T07:44:57;11.00;;;2.20;;
20124;SDS011;10223;50.862;4.360;2022-09-09T07:47:24;11.53;;;2.43;;
20124;SDS011;10223;50.862;4.360;2022-09-09T07:49:51;9.77;;;2.10;;
20124;SDS011;10223;50.862;4.360;2022-09-09T07:52:18;12.63;;;2.70;;
20124;SDS011;10223;50.862;4.360;2022-09-09T07:54:47;9.90;;;2.37;;
20124;SDS011;10223;50.862;4.360;2022-09-09T07:57:14;6.13;;;1.83;;
20124;SDS011;10223;50.862;4.360;2022-09-09T07:59:41;10.47;;;2.00;;
20124;SDS011;10223;50.862;4.360;2022-09-09T08:02:08;12.53;;;2.57;;
20124;SDS011;10223;50.862;4.360;2022-09-09T08:04:36;8.40;;;2.23;;
20124;SDS011;10223;50.862;4.360;2022-09-09T08:07:02;10.93;;;2.50;;
20124;SDS011;10223;50.862;4.360;2022-09-09T08:09:30;12.27;;;2.03;;
20124;SDS011;10223;50.862;4.360;2022-09-09T08:12:00;10.37;;;2.33;;
20124;SDS011;10223;50.862;4.360;2022-09-09T08:14:28;7.23;;;2.10;;
20124;SDS011;10223;50.862;4.360;2022-09-09T08:16:55;14.23;;;2.70;;
20124;SDS011;10223;50.862;4.360;2022-09-09T08:19:22;9.40;;;2.50;;
20124;SDS011;10223;50.862;4.360;2022-09-09T08:21:54;11.10;;;2.83;;
20124;SDS011;10223;50.862;4.360;2022-09-09T08:24:21;7.47;;;2.07;;
20124;SDS011;10223;50.862;4.360;2022-09-09T08:26:48;11.13;;;2.17;;
20124;SDS011;10223;50.862;4.360;2022-09-09T08:29:16;8.73;;;1.70;;
20124;SDS011;10223;50.862;4.360;2022-09-09T08:31:44;10.60;;;2.57;;
20124;SDS011;10223;50.862;4.360;2022-09-09T08:34:13;9.93;;;2.87;;
20124;SDS011;10223;50.862;4.360;2022-09-09T08:36:40;10.80;;;2.33;;
20124;SDS011;10223;50.862;4.360;2022-09-09T08:39:08;5.80;;;1.90;;
20124;SDS011;10223;50.862;4.360;2022-09-09T08:41:46;8.53;;;2.10;;
20124;SDS011;10223;50.862;4.360;2022-09-09T08:44:29;8.07;;;2.60;;
20124;SDS011;10223;50.862;4.360;2022-09-09T08:47:09;11.83;;;2.80;;
20124;SDS011;10223;50.862;4.360;2022-09-09T08:49:53;10.97;;;2.30;;
20124;SDS011;10223;50.862;4.360;2022-09-09T08:52:29;10.33;;;2.70;;
20124;SDS011;10223;50.862;4.360;2022-09-09T08:54:58;10.10;;;2.37;;
20124;SDS011;10223;50.862;4.360;2022-09-09T08:57:38;10.40;;;2.43;;
20124;SDS011;10223;50.862;4.360;2022-09-09T09:00:09;11.60;;;2.37;;
20124;SDS011;10223;50.862;4.360;2022-09-09T09:02:38;9.03;;;2.90;;
20124;SDS011;10223;50.862;4.360;2022-09-09T09:05:14;10.30;;;2.60;;
20124;SDS011;10223;50.862;4.360;2022-09-09T09:07:53;10.93;;;2.30;;
20124;SDS011;10223;50.862;4.360;2022-09-09T09:10:43;11.10;;;2.87;;
20124;SDS011;10223;50.862;4.360;2022-09-09T09:13:14;15.50;;;3.07;;
20124;SDS011;10223;50.862;4.360;2022-09-09T09:15:48;10.60;;;2.23;;
20124;SDS011;10223;50.862;4.360;2022-09-09T09:18:20;14.23;;;2.93;;
20124;SDS011;10223;50.862;4.360;2022-09-09T09:20:49;9.87;;;2.03;;
20124;SDS011;10223;50.862;4.360;2022-09-09T09:23:22;8.60;;;2.03;;
20124;SDS011;10223;50.862;4.360;2022-09-09T09:25:52;8.90;;;2.43;;
20124;SDS011;10223;50.862;4.360;2022-09-09T09:28:24;10.63;;;2.60;;
20124;SDS011;10223;50.862;4.360;2022-09-09T09:30:55;9.43;;;2.43;;
20124;SDS011;10223;50.862;4.360;2022-09-09T09:33:27;7.57;;;2.60;;
20124;SDS011;10223;50.862;4.360;2022-09-09T09:35:58;11.83;;;3.07;;
20124;SDS011;10223;50.862;4.360;2022-09-09T09:38:26;12.60;;;3.07;;
20124;SDS011;10223;50.862;4.360;2022-09-09T09:40:55;12.10;;;2.80;;
20124;SDS011;10223;50.862;4.360;2022-09-09T09:43:24;10.20;;;2.53;;
20124;SDS011;10223;50.862;4.360;2022-09-09T09:45:55;9.53;;;2.67;;
20124;SDS011;10223;50.862;4.360;2022-09-09T09:48:23;11.53;;;2.60;;
20124;SDS011;10223;50.862;4.360;2022-09-09T09:50:51;8.83;;;2.57;;
20124;SDS011;10223;50.862;4.360;2022-09-09T09:53:22;10.10;;;3.03;;
20124;SDS011;10223;50.862;4.360;2022-09-09T09:55:55;9.87;;;2.47;;
20124;SDS011;10223;50.862;4.360;2022-09-09T09:58:24;11.70;;;3.03;;
20124;SDS011;10223;50.862;4.360;2022-09-09T10:00:54;11.47;;;2.60;;
20124;SDS011;10223;50.862;4.360;2022-09-09T10:03:23;13.77;;;2.60;;
20124;SDS011;10223;50.862;4.360;2022-09-09T10:05:52;8.43;;;2.23;;
20124;SDS011;10223;50.862;4.360;2022-09-09T10:08:20;8.63;;;2.70;;
20124;SDS011;10223;50.862;4.360;2022-09-09T10:10:50;7.50;;;2.57;;
20124;SDS011;10223;50.862;4.360;2022-09-09T10:13:26;7.97;;;2.70;;
20124;SDS011;10223;50.862;4.360;2022-09-09T10:16:06;11.50;;;2.30;;
20124;SDS011;10223;50.862;4.360;2022-09-09T10:18:47;15.17;;;2.63;;
20124;SDS011;10223;50.862;4.360;2022-09-09T10:21:28;12.90;;;2.37;;
20124;SDS011;10223;50.862;4.360;2022-09-09T10:24:17;9.30;;;2.03;;
20124;SDS011;10223;50.862;4.360;2022-09-09T10:27:04;7.87;;;2.50;;
20124;SDS011;10223;50.862;4.360;2022-09-09T10:29:44;11.47;;;2.87;;
20124;SDS011;10223;50.862;4.360;2022-09-09T10:32:33;9.23;;;2.50;;
20124;SDS011;10223;50.862;4.360;2022-09-09T10:35:08;8.40;;;2.27;;
20124;SDS011;10223;50.862;4.360;2022-09-09T10:37:41;13.27;;;2.50;;
20124;SDS011;10223;50.862;4.360;2022-09-09T10:40:25;9.30;;;3.00;;
20124;SDS011;10223;50.862;4.360;2022-09-09T10:42:59;7.33;;;2.50;;
20124;SDS011;10223;50.862;4.360;2022-09-09T10:45:32;8.73;;;2.93;;
20124;SDS011;10223;50.862;4.360;2022-09-09T10:48:12;6.03;;;2.30;;
20124;SDS011;10223;50.862;4.360;2022-09-09T10:50:56;7.80;;;2.60;;
20124;SDS011;10223;50.862;4.360;2022-09-09T10:53:40;10.63;;;2.70;;
20124;SDS011;10223;50.862;4.360;2022-09-09T10:56:15;7.07;;;2.70;;
20124;SDS011;10223;50.862;4.360;2022-09-09T10:58:46;3.97;;;1.63;;
20124;SDS011;10223;50.862;4.360;2022-09-09T11:01:18;9.23;;;2.57;;
20124;SDS011;10223;50.862;4.360;2022-09-09T11:03:51;9.10;;;2.60;;
20124;SDS011;10223;50.862;4.360;2022-09-09T11:06:22;10.80;;;2.37;;
20124;SDS011;10223;50.862;4.360;2022-09-09T11:08:55;9.00;;;2.77;;
20124;SDS011;10223;50.862;4.360;2022-09-09T11:11:27;5.93;;;2.03;;
20124;SDS011;10223;50.862;4.360;2022-09-09T11:13:59;9.37;;;2.27;;
20124;SDS011;10223;50.862;4.360;2022-09-09T11:16:33;5.23;;;1.60;;
20124;SDS011;10223;50.862;4.360;2022-09-09T11:19:11;6.63;;;1.93;;
20124;SDS011;10223;50.862;4.360;2022-09-09T11:21:44;8.27;;;2.20;;
20124;SDS011;10223;50.862;4.360;2022-09-09T11:24:14;7.27;;;1.80;;
20124;SDS011;10223;50.862;4.360;2022-09-09T11:26:50;7.33;;;1.90;;
20124;SDS011;10223;50.862;4.360;2022-09-09T11:32:28;7.47;;;1.67;;
20124;SDS011;10223;50.862;4.360;2022-09-09T11:35:23;7.43;;;1.30;;
20124;SDS011;10223;50.862;4.360;2022-09-09T11:38:12;8.83;;;2.03;;
20124;SDS011;10223;50.862;4.360;2022-09-09T11:40:44;11.37;;;2.23;;
20124;SDS011;10223;50.862;4.360;2022-09-09T11:43:13;8.20;;;1.70;;
20124;SDS011;10223;50.862;4.360;2022-09-09T11:45:42;11.43;;;2.23;;
20124;SDS011;10223;50.862;4.360;2022-09-09T11:48:25;7.23;;;1.93;;
20124;SDS011;10223;50.862;4.360;2022-09-09T11:51:01;8.13;;;2.30;;
20124;SDS011;10223;50.862;4.360;2022-09-09T11:53:32;4.90;;;1.30;;
20124;SDS011;10223;50.862;4.360;2022-09-09T11:56:00;9.33;;;2.17;;
20124;SDS011;10223;50.862;4.360;2022-09-09T11:58:37;8.10;;;1.80;;
20124;SDS011;10223;50.862;4.360;2022-09-09T12:01:25;9.13;;;2.00;;
20124;SDS011;10223;50.862;4.360;2022-09-09T12:04:25;14.23;;;1.73;;
20124;SDS011;10223;50.862;4.360;2022-09-09T12:07:00;11.57;;;2.30;;
20124;SDS011;10223;50.862;4.360;2022-09-09T12:09:34;6.63;;;1.80;;
20124;SDS011;10223;50.862;4.360;2022-09-09T12:12:26;8.07;;;1.70;;
20124;SDS011;10223;50.862;4.360;2022-09-09T12:14:57;6.13;;;1.77;;
20124;SDS011;10223;50.862;4.360;2022-09-09T12:17:26;10.07;;;2.00;;
20124;SDS011;10223;50.862;4.360;2022-09-09T12:20:03;10.23;;;2.20;;
20124;SDS011;10223;50.862;4.360;2022-09-09T12:22:37;8.33;;;1.60;;
20124;SDS011;10223;50.862;4.360;2022-09-09T12:25:15;7.43;;;2.00;;
20124;SDS011;10223;50.862;4.360;2022-09-09T12:27:50;9.07;;;1.85;;
20124;SDS011;10223;50.862;4.360;2022-09-09T12:30:28;6.30;;;2.13;;
20124;SDS011;10223;50.862;4.360;2022-09-09T12:33:01;8.03;;;2.13;;
20124;SDS011;10223;50.862;4.360;2022-09-09T12:35:28;7.60;;;1.90;;
20124;SDS011;10223;50.862;4.360;2022-09-09T12:37:59;8.63;;;1.98;;
20124;SDS011;10223;50.862;4.360;2022-09-09T12:40:30;7.75;;;1.80;;
20124;SDS011;10223;50.862;4.360;2022-09-09T12:43:00;7.90;;;1.50;;
20124;SDS011;10223;50.862;4.360;2022-09-09T12:45:28;8.23;;;1.50;;
20124;SDS011;10223;50.862;4.360;2022-09-09T12:47:58;12.75;;;1.95;;
20124;SDS011;10223;50.862;4.360;2022-09-09T12:50:28;7.18;;;1.77;;
20124;SDS011;10223;50.862;4.360;2022-09-09T12:53:00;4.25;;;1.60;;
20124;SDS011;10223;50.862;4.360;2022-09-09T12:55:34;7.43;;;1.33;;
20124;SDS011;10223;50.862;4.360;2022-09-09T12:58:04;7.28;;;1.40;;
20124;SDS011;10223;50.862;4.360;2022-09-09T13:00:32;5.35;;;1.60;;
20124;SDS011;10223;50.862;4.360;2022-09-09T13:03:02;13.68;;;1.60;;
20124;SDS011;10223;50.862;4.360;2022-09-09T13:05:40;7.15;;;1.92;;
20124;SDS011;10223;50.862;4.360;2022-09-09T13:08:11;6.85;;;1.45;;
20124;SDS011;10223;50.862;4.360;2022-09-09T13:10:39;7.28;;;1.30;;
20124;SDS011;10223;50.862;4.360;2022-09-09T13:13:13;5.75;;;1.50;;
20124;SDS011;10223;50.862;4.360;2022-09-09T13:15:47;10.30;;;1.63;;
20124;SDS011;10223;50.862;4.360;2022-09-09T13:18:16;13.80;;;1.67;;
20124;SDS011;10223;50.862;4.360;2022-09-09T13:20:50;3.85;;;1.58;;
20124;SDS011;10223;50.862;4.360;2022-09-09T13:23:19;5.63;;;1.38;;
20124;SDS011;10223;50.862;4.360;2022-09-09T13:25:54;8.73;;;1.50;;
20124;SDS011;10223;50.862;4.360;2022-09-09T13:28:23;5.10;;;1.52;;
20124;SDS011;10223;50.862;4.360;2022-09-09T13:30:55;3.63;;;1.25;;
20124;SDS011;10223;50.862;4.360;2022-09-09T13:33:29;5.72;;;1.25;;
20124;SDS011;10223;50.862;4.360;2022-09-09T13:35:58;4.65;;;1.58;;
20124;SDS011;10223;50.862;4.360;2022-09-09T13:38:30;7.85;;;1.35;;
20124;SDS011;10223;50.862;4.360;2022-09-09T13:40:59;7.13;;;1.50;;
20124;SDS011;10223;50.862;4.360;2022-09-09T13:43:29;4.05;;;1.13;;
20124;SDS011;10223;50.862;4.360;2022-09-09T13:45:58;5.95;;;1.52;;
20124;SDS011;10223;50.862;4.360;2022-09-09T13:48:26;9.43;;;1.60;;
20124;SDS011;10223;50.862;4.360;2022-09-09T13:50:59;3.58;;;1.08;;
20124;SDS011;10223;50.862;4.360;2022-09-09T13:53:29;7.90;;;1.52;;
20124;SDS011;10223;50.862;4.360;2022-09-09T13:55:57;4.93;;;1.27;;
20124;SDS011;10223;50.862;4.360;2022-09-09T13:58:24;2.58;;;0.75;;
20124;SDS011;10223;50.862;4.360;2022-09-09T14:00:51;6.53;;;1.63;;
20124;SDS011;10223;50.862;4.360;2022-09-09T14:03:19;4.53;;;1.23;;
20124;SDS011;10223;50.862;4.360;2022-09-09T14:05:46;5.13;;;1.20;;
20124;SDS011;10223;50.862;4.360;2022-09-09T14:08:15;5.75;;;1.63;;
20124;SDS011;10223;50.862;4.360;2022-09-09T14:10:49;3.15;;;1.10;;
20124;SDS011;10223;50.862;4.360;2022-09-09T14:13:17;5.45;;;1.48;;
20124;SDS011;10223;50.862;4.360;2022-09-09T14:15:44;4.95;;;1.33;;
20124;SDS011;10223;50.862;4.360;2022-09-09T14:18:11;4.72;;;2.20;;
20124;SDS011;10223;50.862;4.360;2022-09-09T14:20:39;4.65;;;1.10;;
20124;SDS011;10223;50.862;4.360;2022-09-09T14:23:07;5.95;;;1.58;;
20124;SDS011;10223;50.862;4.360;2022-09-09T14:25:41;6.38;;;1.73;;
20124;SDS011;10223;50.862;4.360;2022-09-09T14:28:10;6.80;;;2.13;;
20124;SDS011;10223;50.862;4.360;2022-09-09T14:30:39;5.63;;;1.73;;
20124;SDS011;10223;50.862;4.360;2022-09-09T14:33:07;5.38;;;1.60;;
20124;SDS011;10223;50.862;4.360;2022-09-09T14:35:36;5.60;;;1.45;;
20124;SDS011;10223;50.862;4.360;2022-09-09T14:38:03;3.63;;;1.73;;
20124;SDS011;10223;50.862;4.360;2022-09-09T14:40:30;6.00;;;1.58;;
20124;SDS011;10223;50.862;4.360;2022-09-09T14:42:58;4.45;;;1.40;;
20124;SDS011;10223;50.862;4.360;2022-09-09T14:45:27;5.20;;;1.50;;
20124;SDS011;10223;50.862;4.360;2022-09-09T14:47:54;3.17;;;1.35;;
20124;SDS011;10223;50.862;4.360;2022-09-09T14:50:22;4.75;;;1.90;;
20124;SDS011;10223;50.862;4.360;2022-09-09T14:52:49;11.60;;;1.40;;
20124;SDS011;10223;50.862;4.360;2022-09-09T14:55:16;5.57;;;1.70;;
20124;SDS011;10223;50.862;4.360;2022-09-09T14:57:44;8.05;;;1.80;;
20124;SDS011;10223;50.862;4.360;2022-09-09T15:00:11;5.82;;;1.58;;
20124;SDS011;10223;50.862;4.360;2022-09-09T15:02:40;4.53;;;1.20;;
20124;SDS011;10223;50.862;4.360;2022-09-09T15:05:07;7.63;;;1.65;;
20124;SDS011;10223;50.862;4.360;2022-09-09T15:07:36;5.63;;;1.35;;
20124;SDS011;10223;50.862;4.360;2022-09-09T15:10:03;4.03;;;1.20;;
20124;SDS011;10223;50.862;4.360;2022-09-09T15:12:31;12.50;;;2.28;;